createdAt,value
2019-03-25T00:00:39.941Z,115.88
2019-03-25T00:03:11.496Z,113.72
2019-03-25T00:05:41.357Z,112.35
2019-03-25T00:08:11.388Z,111.95
2019-03-25T00:10:41.332Z,108.92
2019-03-25T00:13:11.297Z,111.35
2019-03-25T00:15:42.303Z,109.40
2019-03-25T00:18:12.195Z,110.00
2019-03-25T00:20:42.133Z,110.57
2019-03-25T00:23:12.147Z,115.92
2019-03-25T00:25:42.016Z,115.62
2019-03-25T00:28:13.789Z,108.87
2019-03-25T00:30:43.600Z,110.17
2019-03-25T00:33:13.554Z,109.37
2019-03-25T00:35:43.421Z,107.22
2019-03-25T00:38:13.372Z,105.92
2019-03-25T00:40:43.240Z,103.95
2019-03-25T00:43:13.260Z,103.75
2019-03-25T00:45:43.199Z,103.15
2019-03-25T00:48:13.075Z,103.90
2019-03-25T00:50:42.935Z,102.62
2019-03-25T00:53:12.823Z,102.05
2019-03-25T00:55:42.691Z,104.23
2019-03-25T00:58:12.648Z,101.58
2019-03-25T01:00:42.791Z,100.30
2019-03-25T01:03:12.872Z,100.25
2019-03-25T01:05:42.808Z,102.25
2019-03-25T01:08:12.699Z,100.60
2019-03-25T01:10:42.576Z,100.42
2019-03-25T01:13:12.636Z,101.10
2019-03-25T01:15:42.498Z,94.50
2019-03-25T01:18:17.109Z,101.75
2019-03-25T01:20:44.076Z,96.92
2019-03-25T01:23:14.004Z,91.63
2019-03-25T01:25:43.957Z,94.90
2019-03-25T01:28:13.893Z,95.83
2019-03-25T01:30:43.916Z,96.30
2019-03-25T01:33:13.767Z,91.72
2019-03-25T01:35:43.656Z,96.22
2019-03-25T01:38:13.673Z,91.80
2019-03-25T01:40:44.695Z,91.33
2019-03-25T01:43:14.627Z,93.15
2019-03-25T01:45:44.508Z,92.05
2019-03-25T01:48:14.360Z,93.47
2019-03-25T01:50:44.240Z,90.22
2019-03-25T01:53:14.106Z,91.57
2019-03-25T01:55:44.060Z,88.10
2019-03-25T01:58:13.920Z,88.80
2019-03-25T02:00:44.756Z,89.85
2019-03-25T02:03:14.611Z,88.97
2019-03-25T02:05:44.490Z,90.12
2019-03-25T02:08:14.436Z,86.10
2019-03-25T02:10:44.324Z,87.95
2019-03-25T02:13:14.193Z,87.45
2019-03-25T02:15:44.191Z,85.17
2019-03-25T02:18:14.067Z,84.13
2019-03-25T02:20:43.924Z,85.05
2019-03-25T02:23:13.831Z,86.60
2019-03-25T02:25:43.832Z,86.85
2019-03-25T02:28:13.707Z,84.90
2019-03-25T02:30:43.581Z,82.00
2019-03-25T02:33:13.701Z,83.92
2019-03-25T02:35:43.559Z,86.40
2019-03-25T02:38:13.517Z,79.75
2019-03-25T02:40:43.455Z,82.20
2019-03-25T02:43:13.397Z,82.72
2019-03-25T02:45:43.259Z,78.92
2019-03-25T02:48:13.183Z,84.22
2019-03-25T02:50:43.208Z,86.80
2019-03-25T02:53:13.139Z,80.77
2019-03-25T02:55:43.031Z,80.47
2019-03-25T02:58:13.009Z,78.15
2019-03-25T03:00:42.958Z,80.38
2019-03-25T03:03:12.910Z,75.22
2019-03-25T03:05:42.938Z,77.85
2019-03-25T03:08:12.937Z,76.80
2019-03-25T03:10:42.881Z,79.05
2019-03-25T03:13:12.743Z,76.33
2019-03-25T03:15:43.703Z,76.77
2019-03-25T03:18:13.637Z,73.83
2019-03-25T03:20:43.588Z,80.38
2019-03-25T03:23:13.447Z,71.25
2019-03-25T03:25:56.173Z,75.25
2019-03-25T03:28:14.970Z,79.77
2019-03-25T03:30:44.945Z,76.85
2019-03-25T03:33:14.861Z,72.58
2019-03-25T03:35:46.498Z,74.25
2019-03-25T03:38:16.373Z,76.02
2019-03-25T03:40:46.393Z,70.75
2019-03-25T03:43:16.400Z,72.35
2019-03-25T03:45:46.404Z,72.82
2019-03-25T03:48:16.321Z,70.12
2019-03-25T03:50:46.365Z,73.12
2019-03-25T03:53:16.541Z,72.22
2019-03-25T03:55:47.243Z,68.47
2019-03-25T03:58:17.464Z,72.85
2019-03-25T04:00:47.405Z,71.62
2019-03-25T04:03:17.352Z,67.82
2019-03-25T04:05:47.431Z,71.00
2019-03-25T04:08:17.292Z,71.35
2019-03-25T04:10:47.304Z,69.32
2019-03-25T04:13:17.223Z,68.17
2019-03-25T04:15:47.240Z,69.25
2019-03-25T04:18:17.100Z,66.80
2019-03-25T04:20:46.974Z,64.90
2019-03-25T04:23:16.916Z,68.12
2019-03-25T04:25:46.800Z,69.60
2019-03-25T04:28:16.794Z,66.95
2019-03-25T04:30:46.676Z,63.58
2019-03-25T04:33:16.648Z,66.50
2019-03-25T04:35:46.604Z,64.53
2019-03-25T04:38:16.468Z,64.97
2019-03-25T04:40:46.719Z,63.73
2019-03-25T04:43:16.657Z,64.17
2019-03-25T04:45:46.675Z,63.38
2019-03-25T04:48:16.538Z,67.72
2019-03-25T04:50:46.586Z,65.55
2019-03-25T04:53:17.092Z,63.23
2019-03-25T04:55:47.053Z,63.15
2019-03-25T04:58:16.920Z,61.85
2019-03-25T05:00:46.864Z,60.60
2019-03-25T05:03:16.716Z,64.70
2019-03-25T05:05:46.593Z,61.70
2019-03-25T05:08:16.470Z,58.33
2019-03-25T05:10:46.891Z,61.25
2019-03-25T05:13:16.767Z,57.83
2019-03-25T05:15:46.693Z,60.15
2019-03-25T05:18:16.569Z,58.78
2019-03-25T05:20:46.423Z,62.08
2019-03-25T05:23:16.308Z,62.60
2019-03-25T05:25:46.172Z,58.10
2019-03-25T05:28:16.044Z,57.03
2019-03-25T05:30:45.895Z,60.08
2019-03-25T05:33:15.779Z,56.65
2019-03-25T05:35:46.821Z,57.65
2019-03-25T05:38:16.959Z,58.68
2019-03-25T05:40:46.823Z,56.88
2019-03-25T05:43:16.777Z,58.63
2019-03-25T05:45:46.633Z,58.95
2019-03-25T05:48:16.588Z,54.98
2019-03-25T05:50:46.531Z,56.37
2019-03-25T05:53:16.407Z,56.23
2019-03-25T05:55:46.277Z,57.00
2019-03-25T05:58:16.224Z,52.65
2019-03-25T06:00:46.197Z,55.25
2019-03-25T06:03:16.254Z,53.63
2019-03-25T06:05:46.275Z,51.88
2019-03-25T06:08:16.224Z,56.88
2019-03-25T06:10:46.084Z,50.38
2019-03-25T06:13:16.032Z,54.40
2019-03-25T06:15:45.883Z,51.33
2019-03-25T06:18:15.765Z,55.78
2019-03-25T06:20:45.617Z,55.08
2019-03-25T06:23:15.567Z,62.58
2019-03-25T06:25:45.466Z,58.87
2019-03-25T06:28:15.403Z,53.70
2019-03-25T06:30:45.357Z,55.55
2019-03-25T06:33:15.214Z,55.85
2019-03-25T06:35:46.262Z,58.40
2019-03-25T06:38:16.122Z,52.00
2019-03-25T06:40:45.995Z,53.20
2019-03-25T06:43:15.863Z,47.03
2019-03-25T06:45:45.871Z,48.75
2019-03-25T06:48:15.736Z,48.75
2019-03-25T06:50:45.773Z,49.15
2019-03-25T06:53:15.628Z,46.68
2019-03-25T06:55:45.507Z,55.63
2019-03-25T06:58:15.393Z,52.80
2019-03-25T07:00:45.413Z,50.55
2019-03-25T07:03:15.392Z,48.83
2019-03-25T07:05:45.288Z,46.77
2019-03-25T07:08:15.270Z,40.43
2019-03-25T07:10:45.170Z,33.88
2019-03-25T07:13:15.048Z,32.63
2019-03-25T07:15:44.914Z,36.98
2019-03-25T07:18:14.866Z,36.13
2019-03-25T07:20:44.726Z,36.93
2019-03-25T07:23:14.599Z,38.02
2019-03-25T07:25:44.545Z,32.35
2019-03-25T07:28:14.407Z,31.33
2019-03-25T07:30:44.360Z,34.83
2019-03-25T07:33:14.216Z,31.75
2019-03-25T07:35:44.227Z,27.98
2019-03-25T07:38:14.201Z,23.65
2019-03-25T07:40:44.161Z,23.90
2019-03-25T07:43:14.035Z,22.05
2019-03-25T07:45:43.987Z,20.35
2019-03-25T07:48:13.852Z,20.05
2019-03-25T07:50:43.780Z,22.30
2019-03-25T07:53:13.745Z,19.95
2019-03-25T07:55:43.685Z,17.42
2019-03-25T07:58:13.657Z,15.83
2019-03-25T08:00:43.583Z,17.73
2019-03-25T08:03:13.617Z,15.08
2019-03-25T08:05:43.537Z,14.65
2019-03-25T08:08:13.485Z,13.15
2019-03-25T08:10:43.379Z,14.18
2019-03-25T08:13:13.365Z,12.80
2019-03-25T08:15:43.400Z,15.23
2019-03-25T08:18:13.415Z,13.45
2019-03-25T08:20:43.289Z,11.70
2019-03-25T08:23:13.155Z,12.60
2019-03-25T08:25:43.176Z,12.45
2019-03-25T08:28:13.032Z,11.73
2019-03-25T08:30:42.910Z,10.95
2019-03-25T08:33:12.905Z,9.83
2019-03-25T08:35:42.773Z,12.03
2019-03-25T08:38:12.616Z,10.98
2019-03-25T08:40:42.485Z,11.05
2019-03-25T08:43:12.419Z,11.40
2019-03-25T08:45:43.308Z,10.38
2019-03-25T08:48:13.326Z,8.90
2019-03-25T08:50:43.244Z,11.80
2019-03-25T08:53:13.184Z,9.45
2019-03-25T08:55:43.184Z,10.38
2019-03-25T08:58:13.140Z,10.85
2019-03-25T09:00:43.054Z,8.75
2019-03-25T09:03:12.927Z,9.28
2019-03-25T09:05:43.012Z,9.73
2019-03-25T09:08:12.892Z,8.98
2019-03-25T09:10:42.805Z,8.00
2019-03-25T09:13:12.655Z,9.18
2019-03-25T09:15:42.647Z,6.97
2019-03-25T09:18:12.516Z,8.00
2019-03-25T09:20:42.610Z,10.28
2019-03-25T09:23:12.548Z,8.93
2019-03-25T09:25:42.395Z,8.98
2019-03-25T09:28:23.421Z,7.72
2019-03-25T09:30:55.811Z,8.23
2019-03-25T09:33:25.744Z,8.48
2019-03-25T09:35:56.709Z,7.83
2019-03-25T09:38:26.871Z,7.15
2019-03-25T09:40:56.718Z,9.98
2019-03-25T09:43:26.669Z,8.48
2019-03-25T09:45:56.663Z,8.05
2019-03-25T09:48:26.552Z,8.78
2019-03-25T09:50:56.545Z,9.20
2019-03-25T09:53:26.539Z,8.35
2019-03-25T09:55:56.544Z,7.50
2019-03-25T09:58:35.814Z,7.83
2019-03-25T10:00:58.194Z,9.38
2019-03-25T10:03:28.041Z,7.25
2019-03-25T10:05:58.443Z,7.10
2019-03-25T10:08:28.504Z,7.90
2019-03-25T10:10:58.449Z,4.65
2019-03-25T10:13:28.497Z,5.75
2019-03-25T10:15:58.384Z,5.97
2019-03-25T10:18:28.368Z,6.08
2019-03-25T10:20:58.229Z,6.70
2019-03-25T10:23:28.142Z,4.22
2019-03-25T10:25:58.158Z,8.63
2019-03-25T10:28:28.483Z,5.10
2019-03-25T10:30:58.569Z,4.42
2019-03-25T10:33:28.481Z,6.50
2019-03-25T10:35:58.427Z,6.70
2019-03-25T10:38:28.421Z,5.55
2019-03-25T10:40:58.365Z,3.47
2019-03-25T10:43:28.344Z,4.12
2019-03-25T10:45:58.291Z,3.62
2019-03-25T10:48:28.208Z,5.65
2019-03-25T10:50:58.081Z,4.62
2019-03-25T10:53:27.922Z,4.12
2019-03-25T10:55:57.869Z,3.10
2019-03-25T10:58:27.709Z,6.15
2019-03-25T11:00:57.644Z,4.12
2019-03-25T11:03:27.576Z,3.15
2019-03-25T11:05:57.420Z,5.45
2019-03-25T11:08:27.288Z,4.40
2019-03-25T11:10:57.136Z,5.17
2019-03-25T11:13:27.155Z,4.47
2019-03-25T11:15:57.075Z,2.98
2019-03-25T11:18:26.948Z,4.15
2019-03-25T11:20:56.863Z,3.20
2019-03-25T11:23:26.800Z,3.90
2019-03-25T11:25:56.643Z,3.87
2019-03-25T11:28:26.575Z,3.40
2019-03-25T11:30:57.784Z,2.87
2019-03-25T11:33:27.865Z,3.42
2019-03-25T11:35:58.217Z,4.30
2019-03-25T11:38:28.426Z,1.87
2019-03-25T11:40:58.408Z,3.08
2019-03-25T11:43:28.416Z,4.15
2019-03-25T11:45:58.349Z,3.58
2019-03-25T11:48:28.259Z,2.27
2019-03-25T11:50:58.128Z,2.80
2019-03-25T11:53:28.047Z,3.15
2019-03-25T11:55:57.956Z,3.65
2019-03-25T11:58:27.823Z,3.12
2019-03-25T12:00:57.737Z,3.50
2019-03-25T12:03:28.813Z,3.60
2019-03-25T12:05:58.655Z,3.08
2019-03-25T12:08:28.549Z,3.10
2019-03-25T12:10:58.387Z,3.87
2019-03-25T12:13:28.252Z,2.58
2019-03-25T12:15:58.096Z,2.83
2019-03-25T12:18:28.036Z,3.70
2019-03-25T12:20:57.880Z,3.85
2019-03-25T12:23:27.739Z,3.98
2019-03-25T12:25:57.858Z,2.12
2019-03-25T12:28:27.804Z,3.55
2019-03-25T12:30:58.021Z,2.02
2019-03-25T12:33:27.888Z,2.52
2019-03-25T12:35:57.803Z,3.20
2019-03-25T12:38:27.811Z,2.47
2019-03-25T12:40:58.814Z,1.72
2019-03-25T12:43:28.739Z,3.60
2019-03-25T12:45:58.788Z,3.58
2019-03-25T12:48:28.656Z,2.50
2019-03-25T12:50:58.544Z,4.12
2019-03-25T12:53:28.488Z,3.12
2019-03-25T12:55:58.360Z,1.98
2019-03-25T12:58:29.364Z,3.83
2019-03-25T13:00:59.488Z,2.35
2019-03-25T13:03:29.433Z,3.67
2019-03-25T13:06:00.061Z,2.12
2019-03-25T13:08:33.484Z,2.40
2019-03-25T13:11:01.627Z,4.53
2019-03-25T13:13:31.496Z,2.65
2019-03-25T13:16:01.412Z,2.67
2019-03-25T13:18:31.343Z,3.22
2019-03-25T13:21:01.256Z,4.37
2019-03-25T13:23:31.270Z,3.30
2019-03-25T13:26:01.212Z,3.75
2019-03-25T13:28:32.131Z,3.95
2019-03-25T13:31:02.053Z,2.95
2019-03-25T13:33:33.080Z,2.75
2019-03-25T13:36:02.981Z,3.47
2019-03-25T13:38:32.920Z,2.35
2019-03-25T13:41:02.766Z,2.85
2019-03-25T13:43:32.699Z,3.42
2019-03-25T13:46:05.806Z,3.72
2019-03-25T13:48:34.176Z,6.40
2019-03-25T13:51:04.101Z,3.10
2019-03-25T13:53:34.031Z,2.67
2019-03-25T13:56:03.955Z,3.50
2019-03-25T13:58:33.977Z,4.67
2019-03-25T14:01:03.999Z,3.20
2019-03-25T14:03:33.937Z,2.95
2019-03-25T14:06:03.779Z,3.87
2019-03-25T14:08:33.783Z,3.17
2019-03-25T14:11:03.704Z,3.08
2019-03-25T14:13:33.641Z,1.62
2019-03-25T14:16:03.557Z,2.55
2019-03-25T14:18:33.421Z,2.15
2019-03-25T14:21:03.265Z,2.92
2019-03-25T14:23:33.132Z,3.33
2019-03-25T14:26:03.064Z,1.00
2019-03-25T14:28:32.983Z,2.50
2019-03-25T14:31:02.907Z,1.20
2019-03-25T14:33:33.922Z,2.08
2019-03-25T14:36:03.835Z,2.05
2019-03-25T14:38:33.764Z,1.65
2019-03-25T14:41:03.757Z,1.95
2019-03-25T14:43:33.689Z,1.57
2019-03-25T14:46:03.599Z,2.70
2019-03-25T14:48:33.469Z,1.85
2019-03-25T14:51:03.387Z,1.98
2019-03-25T14:53:33.252Z,3.10
2019-03-25T14:56:04.252Z,2.70
2019-03-25T14:58:34.180Z,1.90
2019-03-25T15:01:04.192Z,2.27
2019-03-25T15:03:34.235Z,2.30
2019-03-25T15:06:04.320Z,1.32
2019-03-25T15:08:34.274Z,2.70
2019-03-25T15:11:04.257Z,3.40
2019-03-25T15:13:34.191Z,2.15
2019-03-25T15:16:04.103Z,2.58
2019-03-25T15:18:34.044Z,3.47
2019-03-25T15:21:03.891Z,2.55
2019-03-25T15:23:33.827Z,1.95
2019-03-25T15:26:03.748Z,5.45
2019-03-25T15:28:33.611Z,6.72
2019-03-25T15:31:03.460Z,12.93
2019-03-25T15:33:33.327Z,22.45
2019-03-25T15:36:03.243Z,16.12
2019-03-25T15:38:33.112Z,15.60
2019-03-25T15:41:03.129Z,11.08
2019-03-25T15:43:33.004Z,8.68
2019-03-25T15:46:03.003Z,11.90
2019-03-25T15:48:32.958Z,12.47
2019-03-25T15:51:02.803Z,7.08
2019-03-25T15:53:32.671Z,10.63
2019-03-25T15:56:02.589Z,11.00
2019-03-25T15:58:32.452Z,6.22
2019-03-25T16:01:02.382Z,10.80
2019-03-25T16:03:32.392Z,8.90
2019-03-25T16:06:02.241Z,5.00
2019-03-25T16:08:32.176Z,5.20
2019-03-25T16:11:02.023Z,4.95
2019-03-25T16:13:31.961Z,8.85
2019-03-25T16:16:01.940Z,2.90
2019-03-25T16:18:34.144Z,4.78
2019-03-25T16:21:04.432Z,5.42
2019-03-25T16:23:34.432Z,3.02
2019-03-25T16:26:04.716Z,2.17
2019-03-25T16:28:34.663Z,2.87
2019-03-25T16:31:05.648Z,2.40
2019-03-25T16:33:35.861Z,3.05
2019-03-25T16:36:05.974Z,2.17
2019-03-25T16:38:35.953Z,2.27
2019-03-25T16:41:05.920Z,2.42
2019-03-25T16:43:35.832Z,2.58
2019-03-25T16:46:05.691Z,2.72
2019-03-25T16:48:35.604Z,1.87
2019-03-25T16:51:05.613Z,2.58
2019-03-25T16:53:35.527Z,0.95
2019-03-25T16:56:05.536Z,0.88
2019-03-25T16:58:35.403Z,2.80
2019-03-25T17:01:10.152Z,1.77
2019-03-25T17:03:39.676Z,1.50
2019-03-25T17:06:09.592Z,1.12
2019-03-25T17:08:39.689Z,2.80
2019-03-25T17:11:09.559Z,2.00
2019-03-25T17:13:39.486Z,3.20
2019-03-25T17:16:09.469Z,7.70
2019-03-25T17:18:39.408Z,2.40
2019-03-25T17:21:09.488Z,1.60
2019-03-25T17:23:39.354Z,1.22
2019-03-25T17:26:09.727Z,1.45
2019-03-25T17:28:39.775Z,2.22
2019-03-25T17:31:20.262Z,1.52
2019-03-25T17:33:42.302Z,3.67
2019-03-25T17:36:12.164Z,1.55
2019-03-25T17:38:42.013Z,1.98
2019-03-25T17:41:11.955Z,1.37
2019-03-25T17:43:41.877Z,1.62
2019-03-25T17:46:11.755Z,1.32
2019-03-25T17:48:41.665Z,2.67
2019-03-25T17:51:11.677Z,0.85
2019-03-25T17:53:41.614Z,1.95
2019-03-25T17:56:11.452Z,1.82
2019-03-25T17:58:41.495Z,1.42
2019-03-25T18:01:13.127Z,1.25
2019-03-25T18:03:43.196Z,2.52
2019-03-25T18:06:14.155Z,2.17
2019-03-25T18:08:44.304Z,1.75
2019-03-25T18:11:15.195Z,3.83
2019-03-25T18:13:45.179Z,2.15
2019-03-25T18:16:15.057Z,2.25
2019-03-25T18:18:45.005Z,1.70
2019-03-25T18:21:14.926Z,1.67
2019-03-25T18:23:44.803Z,1.27
2019-03-25T18:26:14.788Z,3.05
2019-03-25T18:28:44.656Z,4.92
2019-03-25T18:31:14.568Z,1.47
2019-03-25T18:33:45.578Z,5.35
2019-03-25T18:36:15.449Z,4.08
2019-03-25T18:38:45.311Z,1.87
2019-03-25T18:41:15.324Z,2.17
2019-03-25T18:43:45.450Z,2.08
2019-03-25T18:46:15.511Z,2.52
2019-03-25T18:48:45.529Z,3.85
2019-03-25T18:51:15.613Z,2.25
2019-03-25T18:53:45.774Z,2.55
2019-03-25T18:56:15.769Z,2.77
2019-03-25T18:58:46.002Z,3.33
2019-03-25T19:01:16.171Z,4.22
2019-03-25T19:03:46.415Z,4.65
2019-03-25T19:06:16.539Z,5.80
2019-03-25T19:08:47.459Z,5.40
2019-03-25T19:11:17.902Z,6.27
2019-03-25T19:13:49.482Z,7.90
2019-03-25T19:16:20.111Z,10.50
2019-03-25T19:18:50.373Z,8.83
2019-03-25T19:21:20.742Z,6.65
2019-03-25T19:23:52.346Z,5.28
2019-03-25T19:26:23.958Z,4.95
2019-03-25T19:28:55.450Z,4.03
2019-03-25T19:31:26.937Z,3.27
2019-03-25T19:33:58.702Z,3.77
2019-03-25T19:36:30.409Z,3.87
2019-03-25T19:39:03.060Z,2.35
2019-03-25T19:41:34.798Z,3.72
2019-03-25T19:46:37.021Z,3.17
2019-03-25T19:49:08.549Z,3.72
2019-03-25T19:51:40.130Z,3.37
2019-03-25T19:54:11.901Z,5.65
2019-03-25T19:56:43.583Z,1.98
2019-03-25T19:59:16.601Z,4.72
2019-03-25T20:01:48.168Z,2.20
2019-03-25T20:04:19.904Z,3.35
2019-03-25T20:06:52.836Z,5.45
2019-03-25T20:09:24.913Z,2.17
2019-03-25T20:11:56.792Z,2.17
2019-03-25T20:16:59.718Z,3.72
2019-03-25T20:19:32.346Z,2.20
2019-03-25T20:22:04.076Z,7.30
2019-03-25T20:27:06.751Z,2.95
2019-03-25T20:29:38.651Z,2.50
2019-03-25T20:34:40.765Z,2.02
2019-03-25T20:37:12.353Z,2.83
2019-03-25T20:39:44.407Z,2.37
2019-03-25T20:44:46.506Z,2.42
2019-03-25T20:49:48.896Z,1.57
2019-03-25T20:52:20.694Z,1.50
2019-03-25T20:54:52.565Z,1.22
2019-03-25T20:57:24.031Z,2.00
2019-03-25T20:59:55.786Z,1.45
2019-03-25T21:02:27.468Z,4.20
2019-03-25T21:04:59.364Z,2.80
2019-03-25T21:10:01.534Z,3.67
2019-03-25T21:12:33.220Z,3.12
2019-03-25T21:15:06.775Z,2.30
2019-03-25T21:17:38.504Z,2.10
2019-03-25T21:20:10.354Z,1.47
2019-03-25T21:22:41.748Z,2.12
2019-03-25T21:25:12.809Z,2.65
2019-03-25T21:27:43.558Z,1.70
2019-03-25T21:30:13.937Z,3.47
2019-03-25T21:32:43.992Z,2.45
2019-03-25T21:35:14.268Z,1.10
2019-03-25T21:37:44.426Z,2.37
2019-03-25T21:40:14.531Z,2.95
2019-03-25T21:42:44.419Z,1.98
2019-03-25T21:45:14.590Z,3.10
2019-03-25T21:47:44.506Z,3.45
2019-03-25T21:50:14.511Z,2.05
2019-03-25T21:52:44.362Z,1.00
2019-03-25T21:55:14.383Z,1.37
2019-03-25T21:57:44.316Z,1.42
2019-03-25T22:00:14.775Z,0.75
2019-03-25T22:02:44.768Z,1.65
2019-03-25T22:05:14.645Z,2.60
2019-03-25T22:07:44.508Z,1.12
2019-03-25T22:10:14.445Z,2.17
2019-03-25T22:12:44.303Z,1.22
2019-03-25T22:15:14.439Z,1.55
2019-03-25T22:17:44.292Z,3.02
2019-03-25T22:20:14.601Z,1.75
2019-03-25T22:22:44.516Z,0.90
2019-03-25T22:25:14.458Z,1.82
2019-03-25T22:27:44.447Z,1.32
2019-03-25T22:30:14.551Z,1.37
2019-03-25T22:32:44.407Z,0.72
2019-03-25T22:35:14.339Z,1.90
2019-03-25T22:37:44.286Z,1.12
2019-03-25T22:40:14.488Z,1.02
2019-03-25T22:42:44.404Z,1.60
2019-03-25T22:45:15.982Z,1.17
2019-03-25T22:47:45.828Z,4.35
2019-03-25T22:50:29.363Z,0.95
2019-03-25T22:52:59.648Z,1.17
2019-03-25T22:55:29.803Z,2.42
2019-03-25T22:57:59.643Z,1.12
2019-03-25T23:00:40.903Z,1.17
2019-03-25T23:03:11.012Z,0.82
2019-03-25T23:05:41.020Z,0.80
2019-03-25T23:08:10.896Z,1.47
2019-03-25T23:10:41.400Z,0.90
2019-03-25T23:13:11.390Z,1.55
2019-03-25T23:15:41.833Z,1.42
2019-03-25T23:18:11.750Z,0.90
2019-03-25T23:20:41.677Z,1.55
2019-03-25T23:23:11.687Z,0.72
2019-03-25T23:25:41.608Z,1.37
2019-03-25T23:28:11.612Z,1.32
2019-03-25T23:30:41.454Z,0.85
2019-03-25T23:33:11.316Z,0.78
2019-03-25T23:35:41.164Z,1.52
2019-03-25T23:38:11.169Z,2.33
2019-03-25T23:40:41.085Z,1.15
2019-03-25T23:43:11.026Z,1.30
2019-03-25T23:45:40.932Z,0.65
2019-03-25T23:48:10.793Z,0.80
2019-03-25T23:50:40.644Z,1.17
2019-03-25T23:53:10.584Z,1.05
2019-03-25T23:55:40.516Z,0.62
2019-03-25T23:58:10.437Z,1.27
